createdAt,value
2018-05-31T00:00:50.999Z,0.00
2018-05-31T00:01:51.097Z,0.00
2018-05-31T00:02:51.315Z,0.00
2018-05-31T00:03:51.317Z,0.00
2018-05-31T00:04:51.407Z,0.00
2018-05-31T00:05:51.521Z,0.00
2018-05-31T00:06:51.609Z,0.00
2018-05-31T00:07:51.765Z,0.00
2018-05-31T00:08:51.890Z,0.00
2018-05-31T00:09:51.997Z,0.00
2018-05-31T00:10:52.093Z,4.00
2018-05-31T00:11:52.207Z,0.00
2018-05-31T00:12:52.363Z,0.00
2018-05-31T00:13:52.505Z,0.00
2018-05-31T00:14:52.642Z,0.00
2018-05-31T00:15:52.760Z,0.00
2018-05-31T00:16:52.851Z,0.00
2018-05-31T00:17:52.944Z,0.00
2018-05-31T00:18:53.095Z,0.00
2018-05-31T00:19:53.236Z,0.00
2018-05-31T00:20:53.338Z,0.00
2018-05-31T00:21:53.441Z,0.00
2018-05-31T00:22:53.631Z,4.00
2018-05-31T00:23:53.696Z,0.00
2018-05-31T00:24:53.811Z,0.00
2018-05-31T00:25:53.925Z,0.00
2018-05-31T00:26:54.014Z,0.00
2018-05-31T00:27:54.142Z,0.00
2018-05-31T00:28:54.242Z,0.00
2018-05-31T00:29:54.343Z,0.00
2018-05-31T00:30:54.435Z,0.00
2018-05-31T00:31:54.548Z,0.00
2018-05-31T00:32:54.651Z,0.00
2018-05-31T00:33:54.748Z,0.00
2018-05-31T00:34:54.852Z,0.00
2018-05-31T00:35:54.951Z,0.00
2018-05-31T00:36:55.051Z,0.00
2018-05-31T00:37:55.159Z,0.00
2018-05-31T00:38:55.274Z,0.00
2018-05-31T00:39:55.376Z,0.00
2018-05-31T00:40:55.472Z,0.00
2018-05-31T00:41:55.589Z,0.00
2018-05-31T00:42:55.687Z,0.00
2018-05-31T00:43:55.775Z,0.00
2018-05-31T00:44:55.869Z,0.00
2018-05-31T00:45:55.966Z,0.00
2018-05-31T00:46:56.078Z,0.00
2018-05-31T00:47:56.175Z,0.00
2018-05-31T00:48:56.267Z,0.00
2018-05-31T00:49:56.372Z,0.00
2018-05-31T00:50:56.469Z,0.00
2018-05-31T00:51:56.567Z,0.00
2018-05-31T00:52:56.670Z,0.00
2018-05-31T00:53:56.784Z,0.00
2018-05-31T00:54:56.887Z,0.00
2018-05-31T00:55:56.975Z,0.00
2018-05-31T00:56:57.083Z,0.00
2018-05-31T00:57:57.181Z,0.00
2018-05-31T00:58:57.282Z,0.00
2018-05-31T00:59:57.385Z,0.00
2018-05-31T01:00:57.487Z,0.00
2018-05-31T01:01:57.589Z,0.00
2018-05-31T01:02:57.693Z,0.00
2018-05-31T01:03:57.793Z,0.00
2018-05-31T01:04:57.892Z,0.00
2018-05-31T01:05:57.994Z,0.00
2018-05-31T01:06:58.096Z,0.00
2018-05-31T01:07:58.196Z,0.00
2018-05-31T01:08:58.313Z,0.00
2018-05-31T01:09:58.414Z,0.00
2018-05-31T01:10:58.517Z,0.00
2018-05-31T01:11:58.621Z,0.00
2018-05-31T01:12:58.714Z,0.00
2018-05-31T01:13:58.819Z,0.00
2018-05-31T01:14:58.916Z,0.00
2018-05-31T01:15:59.019Z,0.00
2018-05-31T01:16:59.119Z,0.00
2018-05-31T01:17:59.219Z,0.00
2018-05-31T01:18:59.326Z,0.00
2018-05-31T01:19:59.421Z,0.00
2018-05-31T01:20:59.523Z,0.00
2018-05-31T01:21:59.624Z,0.00
2018-05-31T01:22:59.733Z,0.00
2018-05-31T01:23:59.829Z,0.00
2018-05-31T01:24:59.929Z,0.00
2018-05-31T01:26:00.037Z,0.00
2018-05-31T01:27:00.132Z,0.00
2018-05-31T01:28:00.237Z,0.00
2018-05-31T01:29:00.340Z,0.00
2018-05-31T01:30:00.440Z,0.00
2018-05-31T01:31:00.539Z,0.00
2018-05-31T01:32:00.682Z,0.00
2018-05-31T01:33:00.744Z,0.00
2018-05-31T01:34:00.841Z,0.00
2018-05-31T01:35:00.945Z,0.00
2018-05-31T01:36:01.046Z,0.00
2018-05-31T01:37:01.147Z,0.00
2018-05-31T01:38:01.245Z,0.00
2018-05-31T01:39:01.348Z,0.00
2018-05-31T01:40:01.451Z,0.00
2018-05-31T01:41:01.551Z,0.00
2018-05-31T01:42:01.650Z,0.00
2018-05-31T01:43:01.752Z,0.00
2018-05-31T01:44:01.853Z,0.00
2018-05-31T01:45:01.972Z,0.00
2018-05-31T01:46:02.052Z,0.00
2018-05-31T01:47:02.154Z,0.00
2018-05-31T01:48:02.251Z,0.00
2018-05-31T01:49:02.346Z,0.00
2018-05-31T01:50:02.449Z,0.00
2018-05-31T01:51:02.548Z,0.00
2018-05-31T01:52:02.649Z,0.00
2018-05-31T01:53:02.762Z,0.00
2018-05-31T01:54:02.861Z,0.00
2018-05-31T01:55:02.959Z,0.00
2018-05-31T01:56:03.059Z,0.00
2018-05-31T01:57:03.160Z,0.00
2018-05-31T01:58:03.262Z,0.00
2018-05-31T01:59:03.361Z,0.00
2018-05-31T02:00:03.472Z,0.00
2018-05-31T02:01:03.571Z,0.00
2018-05-31T02:02:03.671Z,0.00
2018-05-31T02:03:03.774Z,0.00
2018-05-31T02:04:03.872Z,0.00
2018-05-31T02:05:03.976Z,0.00
2018-05-31T02:06:04.081Z,0.00
2018-05-31T02:07:04.182Z,0.00
2018-05-31T02:08:04.284Z,0.00
2018-05-31T02:09:04.386Z,0.00
2018-05-31T02:10:04.485Z,0.00
2018-05-31T02:11:04.582Z,0.00
2018-05-31T02:12:04.685Z,0.00
2018-05-31T02:13:04.784Z,0.00
2018-05-31T02:14:04.901Z,0.00
2018-05-31T02:15:05.002Z,0.00
2018-05-31T02:16:05.104Z,0.00
2018-05-31T02:17:05.200Z,0.00
2018-05-31T02:18:05.306Z,0.00
2018-05-31T02:19:05.405Z,0.00
2018-05-31T02:20:05.504Z,0.00
2018-05-31T02:21:05.610Z,4.00
2018-05-31T02:22:05.718Z,0.00
2018-05-31T02:23:05.815Z,0.00
2018-05-31T02:24:05.915Z,0.00
2018-05-31T02:25:06.019Z,0.00
2018-05-31T02:26:06.117Z,4.00
2018-05-31T02:27:06.220Z,4.00
2018-05-31T02:28:06.320Z,4.00
2018-05-31T02:29:06.422Z,4.00
2018-05-31T02:30:06.524Z,4.00
2018-05-31T02:31:06.622Z,4.00
2018-05-31T02:32:06.724Z,4.00
2018-05-31T02:33:06.822Z,0.00
2018-05-31T02:34:06.923Z,0.00
2018-05-31T02:35:07.050Z,4.00
2018-05-31T02:36:07.155Z,4.00
2018-05-31T02:37:07.248Z,4.00
2018-05-31T02:38:07.349Z,8.00
2018-05-31T02:39:07.451Z,4.00
2018-05-31T02:40:07.550Z,4.00
2018-05-31T02:41:07.651Z,8.00
2018-05-31T02:42:07.754Z,4.00
2018-05-31T02:43:07.852Z,8.00
2018-05-31T02:44:07.953Z,8.00
2018-05-31T02:45:08.053Z,8.00
2018-05-31T02:46:08.157Z,12.00
2018-05-31T02:47:08.256Z,12.00
2018-05-31T02:48:08.358Z,12.00
2018-05-31T02:49:08.469Z,12.00
2018-05-31T02:50:08.610Z,12.00
2018-05-31T02:51:09.617Z,16.00
2018-05-31T02:52:08.823Z,16.00
2018-05-31T02:53:09.040Z,20.00
2018-05-31T02:54:09.105Z,24.00
2018-05-31T02:55:09.308Z,24.00
2018-05-31T02:56:09.314Z,28.00
2018-05-31T02:57:09.444Z,32.00
2018-05-31T02:58:09.666Z,32.00
2018-05-31T02:59:09.634Z,36.00
2018-05-31T03:00:09.722Z,44.00
2018-05-31T03:01:09.902Z,48.00
2018-05-31T03:02:10.069Z,56.00
2018-05-31T03:03:10.131Z,56.00
2018-05-31T03:04:10.244Z,64.00
2018-05-31T03:05:10.293Z,68.00
2018-05-31T03:06:10.462Z,76.00
2018-05-31T03:07:10.489Z,84.00
2018-05-31T03:08:10.857Z,92.00
2018-05-31T03:09:10.733Z,96.00
2018-05-31T03:10:11.099Z,108.00
2018-05-31T03:11:10.968Z,120.00
2018-05-31T03:12:11.195Z,128.00
2018-05-31T03:13:11.433Z,140.00
2018-05-31T03:14:11.334Z,152.00
2018-05-31T03:15:11.409Z,160.00
2018-05-31T03:16:11.544Z,176.00
2018-05-31T03:17:11.676Z,188.00
2018-05-31T03:18:11.842Z,200.00
2018-05-31T03:19:11.849Z,216.00
2018-05-31T03:20:11.945Z,232.00
2018-05-31T03:21:12.235Z,248.00
2018-05-31T03:22:12.154Z,264.00
2018-05-31T03:23:12.249Z,280.00
2018-05-31T03:24:12.373Z,300.00
2018-05-31T03:25:12.525Z,320.00
2018-05-31T03:26:12.837Z,340.00
2018-05-31T03:27:12.694Z,360.00
2018-05-31T03:28:12.964Z,384.00
2018-05-31T03:29:12.967Z,404.00
2018-05-31T03:30:13.159Z,432.00
2018-05-31T03:31:13.177Z,452.00
2018-05-31T03:32:13.453Z,476.00
2018-05-31T03:33:13.535Z,488.00
2018-05-31T03:34:13.633Z,508.00
2018-05-31T03:35:13.685Z,520.00
2018-05-31T03:36:13.807Z,540.00
2018-05-31T03:37:13.783Z,560.00
2018-05-31T03:38:13.912Z,592.00
2018-05-31T03:39:14.066Z,624.00
2018-05-31T03:40:14.170Z,660.00
2018-05-31T03:41:14.312Z,696.00
2018-05-31T03:42:14.333Z,732.00
2018-05-31T03:43:14.597Z,776.00
2018-05-31T03:44:14.530Z,836.00
2018-05-31T03:45:14.661Z,904.00
2018-05-31T03:46:14.614Z,972.00
2018-05-31T03:47:14.753Z,1048.00
2018-05-31T03:48:14.870Z,1132.00
2018-05-31T03:49:14.986Z,1204.00
2018-05-31T03:50:15.070Z,1264.00
2018-05-31T03:51:15.235Z,1320.00
2018-05-31T03:52:15.214Z,1388.00
2018-05-31T03:53:15.319Z,1448.00
2018-05-31T03:54:15.413Z,1496.00
2018-05-31T03:55:15.643Z,1556.00
2018-05-31T03:56:15.595Z,1660.00
2018-05-31T03:57:15.743Z,1784.00
2018-05-31T03:58:15.872Z,1876.00
2018-05-31T03:59:16.023Z,1936.00
2018-05-31T04:00:16.129Z,1996.00
2018-05-31T04:01:16.097Z,2044.00
2018-05-31T04:02:16.199Z,2096.00
2018-05-31T04:03:16.401Z,2144.00
2018-05-31T04:04:16.367Z,2184.00
2018-05-31T04:05:16.575Z,2236.00
2018-05-31T04:06:16.567Z,2300.00
2018-05-31T04:07:16.712Z,2356.00
2018-05-31T04:08:16.823Z,2408.00
2018-05-31T04:09:16.917Z,2452.00
2018-05-31T04:10:17.110Z,2496.00
2018-05-31T04:11:17.146Z,2536.00
2018-05-31T04:12:17.394Z,2584.00
2018-05-31T04:13:17.376Z,2648.00
2018-05-31T04:14:17.477Z,2708.00
2018-05-31T04:15:17.622Z,2768.00
2018-05-31T04:16:17.749Z,2812.00
2018-05-31T04:17:17.853Z,2844.00
2018-05-31T04:18:18.039Z,2900.00
2018-05-31T04:19:18.025Z,2956.00
2018-05-31T04:20:18.108Z,2908.00
2018-05-31T04:21:18.218Z,3044.00
2018-05-31T04:22:18.331Z,3212.00
2018-05-31T04:23:18.434Z,3248.00
2018-05-31T04:24:18.571Z,3272.00
2018-05-31T04:25:18.652Z,3296.00
2018-05-31T04:26:18.802Z,3288.00
2018-05-31T04:27:18.903Z,3176.00
2018-05-31T04:28:19.005Z,2936.00
2018-05-31T04:29:19.195Z,3036.00
2018-05-31T04:30:19.166Z,3440.00
2018-05-31T04:31:19.269Z,3312.00
2018-05-31T04:32:19.368Z,3068.00
2018-05-31T04:33:19.465Z,3016.00
2018-05-31T04:34:19.555Z,2984.00
2018-05-31T04:35:19.690Z,3112.00
2018-05-31T04:36:19.817Z,3088.00
2018-05-31T04:37:19.903Z,2880.00
2018-05-31T04:38:20.088Z,2868.00
2018-05-31T04:39:20.068Z,2824.00
2018-05-31T04:40:20.173Z,2796.00
2018-05-31T04:41:20.271Z,2916.00
2018-05-31T04:42:20.380Z,3092.00
2018-05-31T04:43:20.497Z,3208.00
2018-05-31T04:44:20.586Z,3632.00
2018-05-31T04:45:20.708Z,3884.00
2018-05-31T04:46:20.811Z,4004.00
2018-05-31T04:47:20.949Z,4096.00
2018-05-31T04:48:21.084Z,4176.00
2018-05-31T04:49:21.172Z,4228.00
2018-05-31T04:50:21.213Z,4252.00
2018-05-31T04:51:21.277Z,4292.00
2018-05-31T04:52:21.401Z,4308.00
2018-05-31T04:53:21.590Z,4328.00
2018-05-31T04:54:21.607Z,4352.00
2018-05-31T04:55:21.658Z,4352.00
2018-05-31T04:56:21.864Z,4360.00
2018-05-31T04:57:21.833Z,4372.00
2018-05-31T04:58:21.920Z,4392.00
2018-05-31T04:59:22.082Z,4420.00
2018-05-31T05:00:22.196Z,4404.00
2018-05-31T05:01:22.306Z,4368.00
2018-05-31T05:02:22.409Z,4360.00
2018-05-31T05:03:22.511Z,4392.00
2018-05-31T05:04:22.690Z,4428.00
2018-05-31T05:05:22.709Z,4460.00
2018-05-31T05:06:22.906Z,4532.00
2018-05-31T05:07:22.920Z,4624.00
2018-05-31T05:08:23.102Z,4740.00
2018-05-31T05:09:23.119Z,4808.00
2018-05-31T05:10:23.215Z,4880.00
2018-05-31T05:11:23.335Z,4936.00
2018-05-31T05:12:23.398Z,5008.00
2018-05-31T05:13:23.511Z,5092.00
2018-05-31T05:14:23.630Z,5176.00
2018-05-31T05:15:23.896Z,5248.00
2018-05-31T05:16:23.882Z,5328.00
2018-05-31T05:17:24.011Z,5388.00
2018-05-31T05:18:24.118Z,5452.00
2018-05-31T05:19:24.205Z,5544.00
2018-05-31T05:20:24.312Z,5708.00
2018-05-31T05:21:24.490Z,9860.00
2018-05-31T05:22:24.505Z,26528.00
2018-05-31T05:23:24.591Z,40480.00
2018-05-31T05:24:24.692Z,38976.00
2018-05-31T05:25:24.799Z,35808.00
2018-05-31T05:26:24.913Z,33952.00
2018-05-31T05:27:25.009Z,34912.00
2018-05-31T05:28:25.116Z,36672.00
2018-05-31T05:29:25.210Z,40096.00
2018-05-31T05:30:25.308Z,41152.00
2018-05-31T05:31:25.424Z,40992.00
2018-05-31T05:32:25.514Z,39904.00
2018-05-31T05:33:25.613Z,38432.00
2018-05-31T05:34:25.729Z,36928.00
2018-05-31T05:35:25.845Z,36128.00
2018-05-31T05:36:25.956Z,35040.00
2018-05-31T05:37:26.064Z,33824.00
2018-05-31T05:38:26.168Z,32128.00
2018-05-31T05:39:26.273Z,30912.00
2018-05-31T05:40:26.377Z,30240.00
2018-05-31T05:41:26.487Z,30112.00
2018-05-31T05:42:26.594Z,30560.00
2018-05-31T05:43:26.728Z,31200.00
2018-05-31T05:44:26.793Z,31264.00
2018-05-31T05:45:26.922Z,30592.00
2018-05-31T05:46:27.028Z,29984.00
2018-05-31T05:47:27.167Z,29792.00
2018-05-31T05:48:27.279Z,29568.00
2018-05-31T05:49:27.379Z,29536.00
2018-05-31T05:50:27.493Z,30304.00
2018-05-31T05:51:27.599Z,30912.00
2018-05-31T05:52:27.700Z,31072.00
2018-05-31T05:53:27.808Z,30912.00
2018-05-31T05:54:27.924Z,31360.00
2018-05-31T05:55:28.035Z,32096.00
2018-05-31T05:56:28.150Z,32864.00
2018-05-31T05:57:28.266Z,33664.00
2018-05-31T05:58:28.380Z,34208.00
2018-05-31T05:59:28.493Z,34048.00
2018-05-31T06:00:28.608Z,30496.00
2018-05-31T06:01:28.718Z,32192.00
2018-05-31T06:02:28.831Z,16960.00
2018-05-31T06:03:28.942Z,20672.00
2018-05-31T06:04:29.109Z,16736.00
2018-05-31T06:05:29.192Z,21760.00
2018-05-31T06:06:29.306Z,19072.00
2018-05-31T06:07:29.416Z,30944.00
2018-05-31T06:08:29.525Z,33472.00
2018-05-31T06:09:29.635Z,32736.00
2018-05-31T06:10:29.745Z,33792.00
2018-05-31T06:11:29.856Z,35584.00
2018-05-31T06:12:29.969Z,28608.00
2018-05-31T06:13:30.079Z,11548.00
2018-05-31T06:14:30.207Z,6976.00
2018-05-31T06:15:30.345Z,6752.00
2018-05-31T06:16:30.428Z,6608.00
2018-05-31T06:17:30.539Z,6504.00
2018-05-31T06:18:30.651Z,6412.00
2018-05-31T06:19:30.785Z,6324.00
2018-05-31T06:20:30.899Z,6232.00
2018-05-31T06:21:31.010Z,6168.00
2018-05-31T06:22:31.122Z,6136.00
2018-05-31T06:23:31.232Z,6100.00
2018-05-31T06:24:31.358Z,6028.00
2018-05-31T06:25:31.456Z,6008.00
2018-05-31T06:26:31.694Z,6088.00
2018-05-31T06:27:31.681Z,6020.00
2018-05-31T06:28:31.789Z,6100.00
2018-05-31T06:29:31.900Z,6056.00
2018-05-31T06:30:32.014Z,6068.00
2018-05-31T06:31:32.124Z,6036.00
2018-05-31T06:32:32.239Z,5716.00
2018-05-31T06:33:32.394Z,5728.00
2018-05-31T06:34:32.500Z,6236.00
2018-05-31T06:35:32.609Z,6608.00
2018-05-31T06:36:32.720Z,6768.00
2018-05-31T06:37:32.831Z,6768.00
2018-05-31T06:38:33.112Z,6784.00
2018-05-31T06:39:33.107Z,6844.00
2018-05-31T06:40:33.219Z,6924.00
2018-05-31T06:41:33.316Z,6940.00
2018-05-31T06:42:33.508Z,6952.00
2018-05-31T06:43:33.677Z,7000.00
2018-05-31T06:44:33.585Z,6968.00
2018-05-31T06:45:33.738Z,6916.00
2018-05-31T06:46:33.874Z,6912.00
2018-05-31T06:47:34.071Z,6876.00
2018-05-31T06:48:34.065Z,6856.00
2018-05-31T06:49:34.183Z,6736.00
2018-05-31T06:50:34.305Z,6620.00
2018-05-31T06:51:34.481Z,6528.00
2018-05-31T06:52:34.645Z,6452.00
2018-05-31T06:53:34.675Z,6428.00
2018-05-31T06:54:34.867Z,6396.00
2018-05-31T06:55:34.881Z,6372.00
2018-05-31T06:56:35.027Z,6336.00
2018-05-31T06:57:35.173Z,6320.00
2018-05-31T06:58:35.419Z,6212.00
2018-05-31T06:59:35.465Z,5372.00
2018-05-31T07:00:35.482Z,6104.00
2018-05-31T07:01:35.593Z,5892.00
2018-05-31T07:02:35.704Z,6176.00
2018-05-31T07:03:35.811Z,6312.00
2018-05-31T07:04:35.919Z,6420.00
2018-05-31T07:05:36.024Z,6500.00
2018-05-31T07:06:36.129Z,6520.00
2018-05-31T07:07:36.237Z,6556.00
2018-05-31T07:08:36.345Z,6644.00
2018-05-31T07:09:36.457Z,6632.00
2018-05-31T07:10:36.566Z,6652.00
2018-05-31T07:11:36.673Z,6660.00
2018-05-31T07:12:36.783Z,6720.00
2018-05-31T07:13:36.892Z,6928.00
2018-05-31T07:14:36.999Z,6956.00
2018-05-31T07:15:37.113Z,6960.00
2018-05-31T07:16:37.225Z,6960.00
2018-05-31T07:17:37.332Z,6968.00
2018-05-31T07:18:37.438Z,7040.00
2018-05-31T07:19:37.545Z,7064.00
2018-05-31T07:20:37.654Z,7236.00
2018-05-31T07:21:37.763Z,7344.00
2018-05-31T07:22:37.866Z,7352.00
2018-05-31T07:23:37.975Z,7300.00
2018-05-31T07:24:38.082Z,7212.00
2018-05-31T07:25:38.192Z,7248.00
2018-05-31T07:26:38.295Z,8092.00
2018-05-31T07:27:38.406Z,8580.00
2018-05-31T07:28:38.511Z,7756.00
2018-05-31T07:29:39.588Z,7284.00
2018-05-31T07:30:39.615Z,6892.00
2018-05-31T07:31:39.614Z,6736.00
2018-05-31T07:32:39.197Z,6512.00
2018-05-31T07:33:39.463Z,6228.00
2018-05-31T07:34:39.282Z,6024.00
2018-05-31T07:35:39.425Z,5648.00
2018-05-31T07:36:39.597Z,5764.00
2018-05-31T07:37:39.734Z,5820.00
2018-05-31T07:38:39.765Z,5816.00
2018-05-31T07:39:39.912Z,5924.00
2018-05-31T07:40:40.065Z,6204.00
2018-05-31T07:41:39.976Z,6356.00
2018-05-31T07:42:40.240Z,6496.00
2018-05-31T07:43:40.421Z,6508.00
2018-05-31T07:44:40.395Z,6488.00
2018-05-31T07:45:40.748Z,5996.00
2018-05-31T07:46:40.618Z,6096.00
2018-05-31T07:47:40.883Z,5876.00
2018-05-31T07:48:40.897Z,6292.00
2018-05-31T07:49:40.890Z,6388.00
2018-05-31T07:50:41.314Z,6636.00
2018-05-31T07:51:41.418Z,6776.00
2018-05-31T07:52:41.257Z,6780.00
2018-05-31T07:53:41.364Z,6696.00
2018-05-31T07:54:41.516Z,6632.00
2018-05-31T07:55:41.588Z,6380.00
2018-05-31T07:56:41.661Z,5952.00
2018-05-31T07:57:41.761Z,5868.00
2018-05-31T07:58:41.821Z,6412.00
2018-05-31T07:59:42.191Z,6572.00
2018-05-31T08:00:42.043Z,6580.00
2018-05-31T08:01:42.482Z,6640.00
2018-05-31T08:02:42.425Z,6724.00
2018-05-31T08:03:42.502Z,6736.00
2018-05-31T08:04:42.576Z,6720.00
2018-05-31T08:05:42.639Z,6716.00
2018-05-31T08:06:42.989Z,6716.00
2018-05-31T08:07:43.004Z,6652.00
2018-05-31T08:08:42.912Z,6680.00
2018-05-31T08:09:43.072Z,6652.00
2018-05-31T08:10:43.393Z,6668.00
2018-05-31T08:11:43.238Z,6692.00
2018-05-31T08:12:43.416Z,6640.00
2018-05-31T08:13:43.556Z,6700.00
2018-05-31T08:14:43.824Z,6552.00
2018-05-31T08:15:43.723Z,6484.00
2018-05-31T08:16:43.881Z,6428.00
2018-05-31T08:17:44.004Z,6372.00
2018-05-31T08:18:44.106Z,6324.00
2018-05-31T08:19:44.271Z,6260.00
2018-05-31T08:20:44.515Z,6204.00
2018-05-31T08:21:44.482Z,6156.00
2018-05-31T08:22:44.579Z,6092.00
2018-05-31T08:23:44.714Z,6036.00
2018-05-31T08:24:44.790Z,5940.00
2018-05-31T08:25:45.151Z,5936.00
2018-05-31T08:26:45.135Z,5880.00
2018-05-31T08:27:45.137Z,5824.00
2018-05-31T08:28:45.595Z,5684.00
2018-05-31T08:29:45.400Z,5744.00
2018-05-31T08:30:45.565Z,5700.00
2018-05-31T08:31:45.596Z,5660.00
2018-05-31T08:32:45.750Z,5616.00
2018-05-31T08:33:46.114Z,5584.00
2018-05-31T08:34:45.947Z,5560.00
2018-05-31T08:35:46.317Z,5536.00
2018-05-31T08:36:46.198Z,5508.00
2018-05-31T08:37:46.327Z,5492.00
2018-05-31T08:38:46.632Z,5472.00
2018-05-31T08:39:46.488Z,5472.00
2018-05-31T08:40:46.629Z,5448.00
2018-05-31T08:41:46.730Z,5460.00
2018-05-31T08:42:46.923Z,5432.00
2018-05-31T08:43:47.029Z,5400.00
2018-05-31T08:44:47.167Z,5420.00
2018-05-31T08:45:47.378Z,5368.00
2018-05-31T08:46:47.395Z,5408.00
2018-05-31T08:47:47.524Z,5440.00
2018-05-31T08:48:47.693Z,5444.00
2018-05-31T08:49:47.726Z,5452.00
2018-05-31T08:50:47.957Z,5416.00
2018-05-31T08:51:47.993Z,5468.00
2018-05-31T08:52:48.089Z,5460.00
2018-05-31T08:53:48.183Z,5448.00
2018-05-31T08:54:48.319Z,5452.00
2018-05-31T08:55:48.448Z,5464.00
2018-05-31T08:56:48.629Z,5464.00
2018-05-31T08:57:48.720Z,5468.00
2018-05-31T08:58:48.723Z,5488.00
2018-05-31T08:59:48.902Z,5492.00
2018-05-31T09:00:49.080Z,5480.00
2018-05-31T09:01:49.018Z,5460.00
2018-05-31T09:02:49.254Z,5460.00
2018-05-31T09:03:49.361Z,5444.00
2018-05-31T09:04:49.327Z,5456.00
2018-05-31T09:05:49.440Z,5480.00
2018-05-31T09:06:49.595Z,5600.00
2018-05-31T09:07:49.739Z,5596.00
2018-05-31T09:08:49.919Z,5604.00
2018-05-31T09:09:50.262Z,5624.00
2018-05-31T09:10:50.026Z,5580.00
2018-05-31T09:11:50.126Z,5576.00
2018-05-31T09:12:50.295Z,5520.00
2018-05-31T09:13:50.408Z,5568.00
2018-05-31T09:14:50.603Z,5616.00
2018-05-31T09:15:50.718Z,5648.00
2018-05-31T09:16:50.736Z,5704.00
2018-05-31T09:17:51.007Z,5760.00
2018-05-31T09:18:51.104Z,5572.00
2018-05-31T09:19:51.467Z,5572.00
2018-05-31T09:20:51.284Z,5656.00
2018-05-31T09:21:51.547Z,5704.00
2018-05-31T09:22:51.739Z,5708.00
2018-05-31T09:23:51.645Z,5728.00
2018-05-31T09:24:51.739Z,5684.00
2018-05-31T09:25:51.771Z,5664.00
2018-05-31T09:26:52.020Z,5652.00
2018-05-31T09:27:52.252Z,5736.00
2018-05-31T09:28:52.166Z,5752.00
2018-05-31T09:29:52.402Z,5892.00
2018-05-31T09:30:52.525Z,5928.00
2018-05-31T09:31:52.594Z,5980.00
2018-05-31T09:32:52.627Z,6028.00
2018-05-31T09:33:52.777Z,6032.00
2018-05-31T09:34:52.907Z,5940.00
2018-05-31T09:35:53.191Z,5780.00
2018-05-31T09:36:53.206Z,5756.00
2018-05-31T09:37:53.425Z,5776.00
2018-05-31T09:38:53.394Z,5836.00
2018-05-31T09:39:53.485Z,5828.00
2018-05-31T09:40:53.590Z,5892.00
2018-05-31T09:41:53.687Z,5936.00
2018-05-31T09:42:53.981Z,5888.00
2018-05-31T09:43:53.926Z,5932.00
2018-05-31T09:44:54.038Z,6088.00
2018-05-31T09:45:54.097Z,5728.00
2018-05-31T09:46:54.220Z,5760.00
2018-05-31T09:47:54.334Z,5744.00
2018-05-31T09:48:54.441Z,5776.00
2018-05-31T09:49:54.550Z,5828.00
2018-05-31T09:50:54.662Z,5888.00
2018-05-31T09:51:54.774Z,5948.00
2018-05-31T09:52:54.905Z,6016.00
2018-05-31T09:53:55.020Z,6104.00
2018-05-31T09:54:55.135Z,6156.00
2018-05-31T09:55:55.243Z,6164.00
2018-05-31T09:56:55.348Z,6400.00
2018-05-31T09:57:55.462Z,6296.00
2018-05-31T09:58:55.594Z,6216.00
2018-05-31T09:59:55.713Z,6208.00
2018-05-31T10:00:55.837Z,6148.00
2018-05-31T10:01:55.944Z,6180.00
2018-05-31T10:02:56.501Z,6244.00
2018-05-31T10:03:56.231Z,6208.00
2018-05-31T10:04:56.347Z,6292.00
2018-05-31T10:05:56.365Z,6552.00
2018-05-31T10:06:56.480Z,6248.00
2018-05-31T10:07:56.588Z,6280.00
2018-05-31T10:08:56.683Z,6548.00
2018-05-31T10:09:56.991Z,6252.00
2018-05-31T10:10:56.962Z,6204.00
2018-05-31T10:11:57.058Z,6216.00
2018-05-31T10:12:57.171Z,6284.00
2018-05-31T10:13:57.281Z,6352.00
2018-05-31T10:14:57.391Z,6252.00
2018-05-31T10:15:57.501Z,6312.00
2018-05-31T10:16:57.616Z,5788.00
2018-05-31T10:17:57.724Z,6440.00
2018-05-31T10:18:57.833Z,5728.00
2018-05-31T10:19:57.947Z,4944.00
2018-05-31T10:20:58.054Z,4624.00
2018-05-31T10:21:58.167Z,5208.00
2018-05-31T10:22:58.276Z,4752.00
2018-05-31T10:23:58.387Z,5344.00
2018-05-31T10:24:58.498Z,5864.00
2018-05-31T10:25:58.607Z,6040.00
2018-05-31T10:26:58.718Z,6712.00
2018-05-31T10:27:58.827Z,6680.00
2018-05-31T10:28:58.936Z,6592.00
2018-05-31T10:29:59.045Z,6600.00
2018-05-31T10:30:59.156Z,6572.00
2018-05-31T10:31:59.281Z,6608.00
2018-05-31T10:32:59.392Z,6580.00
2018-05-31T10:33:59.502Z,4704.00
2018-05-31T10:34:59.611Z,4352.00
2018-05-31T10:35:59.727Z,4164.00
2018-05-31T10:36:59.838Z,4072.00
2018-05-31T10:37:59.948Z,4052.00
2018-05-31T10:39:00.060Z,3948.00
2018-05-31T10:40:00.168Z,3824.00
2018-05-31T10:41:00.279Z,3720.00
2018-05-31T10:42:00.393Z,3660.00
2018-05-31T10:43:00.501Z,3672.00
2018-05-31T10:44:00.609Z,3752.00
2018-05-31T10:45:00.722Z,3904.00
2018-05-31T10:46:00.830Z,4140.00
2018-05-31T10:47:00.943Z,4232.00
2018-05-31T10:48:01.050Z,4344.00
2018-05-31T10:49:01.167Z,4484.00
2018-05-31T10:50:01.276Z,4528.00
2018-05-31T10:51:01.393Z,4532.00
2018-05-31T10:52:01.504Z,4508.00
2018-05-31T10:53:01.624Z,4504.00
2018-05-31T10:54:01.725Z,4528.00
2018-05-31T10:55:01.836Z,4660.00
2018-05-31T10:56:01.949Z,4848.00
2018-05-31T10:57:02.063Z,5136.00
2018-05-31T10:58:02.182Z,5488.00
2018-05-31T10:59:02.293Z,5736.00
2018-05-31T11:00:02.400Z,5976.00
2018-05-31T11:01:02.508Z,6028.00
2018-05-31T11:02:02.619Z,6160.00
2018-05-31T11:03:02.750Z,5844.00
2018-05-31T11:04:02.858Z,5728.00
2018-05-31T11:05:02.969Z,5632.00
2018-05-31T11:06:03.085Z,5472.00
2018-05-31T11:07:03.193Z,5348.00
2018-05-31T11:08:03.303Z,5540.00
2018-05-31T11:09:03.412Z,5164.00
2018-05-31T11:10:03.520Z,5432.00
2018-05-31T11:11:03.626Z,5960.00
2018-05-31T11:12:03.738Z,6928.00
2018-05-31T11:13:03.849Z,8260.00
2018-05-31T11:14:03.961Z,8312.00
2018-05-31T11:15:04.070Z,8360.00
2018-05-31T11:16:04.182Z,8348.00
2018-05-31T11:17:04.291Z,8292.00
2018-05-31T11:18:04.399Z,8252.00
2018-05-31T11:19:04.504Z,8200.00
2018-05-31T11:20:04.613Z,8144.00
2018-05-31T11:21:04.724Z,8072.00
2018-05-31T11:22:04.839Z,7924.00
2018-05-31T11:23:04.946Z,7200.00
2018-05-31T11:24:05.059Z,6340.00
2018-05-31T11:25:05.166Z,5580.00
2018-05-31T11:26:05.283Z,5544.00
2018-05-31T11:27:05.392Z,4980.00
2018-05-31T11:28:05.503Z,4600.00
2018-05-31T11:29:05.614Z,4588.00
2018-05-31T11:30:05.725Z,4540.00
2018-05-31T11:31:05.843Z,4396.00
2018-05-31T11:32:05.951Z,4124.00
2018-05-31T11:33:06.061Z,4060.00
2018-05-31T11:34:06.174Z,6476.00
2018-05-31T11:35:06.285Z,6600.00
2018-05-31T11:36:06.390Z,6528.00
2018-05-31T11:37:06.497Z,6688.00
2018-05-31T11:38:06.606Z,6476.00
2018-05-31T11:39:06.718Z,6464.00
2018-05-31T11:40:06.837Z,6416.00
2018-05-31T11:41:06.946Z,6380.00
2018-05-31T11:42:07.052Z,6360.00
2018-05-31T11:43:07.159Z,6280.00
2018-05-31T11:44:07.266Z,6188.00
2018-05-31T11:45:07.378Z,6120.00
2018-05-31T11:46:07.491Z,6072.00
2018-05-31T11:47:07.602Z,6040.00
2018-05-31T11:48:07.711Z,5996.00
2018-05-31T11:49:07.845Z,6004.00
2018-05-31T11:50:07.952Z,6000.00
2018-05-31T11:51:08.064Z,6008.00
2018-05-31T11:52:08.174Z,6060.00
2018-05-31T11:53:08.286Z,6196.00
2018-05-31T11:54:08.398Z,6228.00
2018-05-31T11:55:08.580Z,6280.00
2018-05-31T11:56:08.569Z,6476.00
2018-05-31T11:57:08.657Z,6804.00
2018-05-31T11:58:08.755Z,6448.00
2018-05-31T11:59:08.917Z,6456.00
2018-05-31T12:00:09.091Z,6492.00
2018-05-31T12:01:09.099Z,6536.00
2018-05-31T12:02:09.197Z,6568.00
2018-05-31T12:03:09.342Z,6588.00
2018-05-31T12:04:09.450Z,6676.00
2018-05-31T12:05:09.570Z,6876.00
2018-05-31T12:06:09.745Z,6180.00
2018-05-31T12:07:09.732Z,5372.00
2018-05-31T12:08:09.904Z,4720.00
2018-05-31T12:09:09.946Z,5800.00
2018-05-31T12:10:10.053Z,4596.00
2018-05-31T12:11:10.124Z,4608.00
2018-05-31T12:12:10.280Z,6096.00
2018-05-31T12:13:10.367Z,5048.00
2018-05-31T12:14:10.469Z,6548.00
2018-05-31T12:15:10.600Z,6664.00
2018-05-31T12:16:10.707Z,7012.00
2018-05-31T12:17:10.834Z,6820.00
2018-05-31T12:18:10.956Z,4964.00
2018-05-31T12:19:11.052Z,4996.00
2018-05-31T12:20:11.150Z,4924.00
2018-05-31T12:21:11.256Z,4820.00
2018-05-31T12:22:11.365Z,4932.00
2018-05-31T12:23:11.510Z,7084.00